Time;durP1;ratioP1;P1;durP2;ratioP2;P2;SDS_P1;SDS_P2;PMS_P1;PMS_P2;Temp;Humidity;BMP_temperature;BMP_pressure;BME280_temperature;BME280_humidity;BME280_pressure;Samples;Min_cycle;Max_cycle;Signal;HPM_P1;HPM_P2
2021/04/01 00:02:06;;;;;;;1.20;1.10;;;;;;;13.00;57.48;100696.09;4884087;29;20041;-77
2021/04/01 00:04:35;;;;;;;1.00;1.00;;;;;;;12.91;57.27;100685.66;4868755;29;20693;-78
2021/04/01 00:07:08;;;;;;;0.90;0.90;;;;;;;13.04;57.78;100710.88;4869781;29;20123;-79
2021/04/01 00:09:36;;;;;;;1.17;1.13;;;;;;;12.97;57.94;100705.69;4881212;29;20644;-77
2021/04/01 00:12:05;;;;;;;1.70;1.60;;;;;;;12.99;57.91;100698.00;4877068;29;20043;-79
2021/04/01 00:14:33;;;;;;;0.68;0.68;;;;;;;13.08;58.32;100715.56;4878796;29;20052;-76
2021/04/01 00:17:05;;;;;;;0.70;0.70;;;;;;;12.97;57.86;100705.69;4869499;29;20541;-76
2021/04/01 00:19:30;;;;;;;0.65;0.65;;;;;;;12.91;57.67;100698.56;4864582;29;20040;-77
2021/04/01 00:22:00;;;;;;;1.13;0.90;;;;;;;12.94;58.11;100700.75;4872960;29;20028;-78
2021/04/01 00:24:26;;;;;;;2.78;0.98;;;;;;;12.99;58.17;100713.66;4873628;29;20043;-77
2021/04/01 00:26:54;;;;;;;0.65;0.65;;;;;;;12.94;57.88;100711.72;4876301;29;20037;-77
2021/04/01 00:29:20;;;;;;;0.82;0.82;;;;;;;12.95;58.63;100707.88;4867029;29;20405;-76
2021/04/01 00:31:52;;;;;;;1.63;1.33;;;;;;;12.87;58.06;100703.75;4866585;29;20043;-78
2021/04/01 00:34:18;;;;;;;1.13;1.13;;;;;;;12.84;58.14;100695.28;4875922;29;20037;-77
2021/04/01 00:36:43;;;;;;;1.58;1.35;;;;;;;12.82;58.68;100695.53;4884776;29;20033;-77
2021/04/01 00:39:11;;;;;;;1.70;1.60;;;;;;;12.88;58.85;100712.84;4871988;29;20063;-76
2021/04/01 00:41:49;;;;;;;;;;;;;;;;;;;;;
2021/04/01 00:44:16;;;;;;;2.28;1.63;;;;;;;12.75;58.90;100700.47;4876614;29;20059;-75
2021/04/01 00:46:47;;;;;;;1.48;1.38;;;;;;;12.78;58.60;100712.84;4859689;29;20467;-75
2021/04/01 00:49:29;;;;;;;;;;;;;;;;;;;;;
2021/04/01 00:52:04;;;;;;;2.85;2.75;;;;;;;12.82;59.36;100723.00;4861845;29;20373;-74
2021/04/01 00:54:30;;;;;;;3.22;2.97;;;;;;;12.62;59.11;100693.59;4880494;29;20041;-74
2021/04/01 00:56:58;;;;;;;5.88;2.50;;;;;;;12.72;59.04;100712.81;4871834;29;20403;-75
2021/04/01 00:59:25;;;;;;;2.28;2.17;;;;;;;12.82;59.33;100731.22;4869413;29;20107;-76
2021/04/01 01:01:51;;;;;;;1.60;1.50;;;;;;;12.80;59.31;100727.91;4869368;29;20032;-76
2021/04/01 01:04:18;;;;;;;1.63;1.52;;;;;;;12.81;59.55;100728.75;4862663;29;20036;-76
2021/04/01 01:06:44;;;;;;;1.30;1.20;;;;;;;12.79;59.60;100722.69;4845192;29;20047;-76
2021/04/01 01:09:11;;;;;;;3.70;1.85;;;;;;;12.83;59.24;100730.09;4855094;29;20041;-74
2021/04/01 01:11:37;;;;;;;3.13;2.92;;;;;;;12.83;59.59;100715.56;4845322;29;20404;-75
2021/04/01 01:14:06;;;;;;;2.00;1.90;;;;;;;12.77;59.81;100711.19;4841973;29;20033;-76
2021/04/01 01:16:35;;;;;;;2.35;2.25;;;;;;;12.71;59.96;100705.69;4865401;29;20028;-74
2021/04/01 01:19:03;;;;;;;2.72;2.53;;;;;;;12.78;59.42;100712.84;4853159;29;20021;-75
2021/04/01 01:21:29;;;;;;;2.88;2.75;;;;;;;12.87;59.84;100727.66;4878087;29;20043;-77
2021/04/01 01:24:03;;;;;;;2.17;2.08;;;;;;;12.80;59.62;100716.13;4881316;29;20468;-78
2021/04/01 01:26:31;;;;;;;2.38;2.28;;;;;;;12.84;59.73;100722.72;4860534;29;20040;-76
2021/04/01 01:29:01;;;;;;;3.08;2.72;;;;;;;12.86;59.67;100729.56;4886273;29;20486;-75
2021/04/01 01:31:27;;;;;;;2.70;2.50;;;;;;;12.95;59.73;100735.31;4871548;29;20674;-76
2021/04/01 01:33:56;;;;;;;2.22;1.73;;;;;;;12.90;59.49;100727.09;4872670;29;20054;-76
2021/04/01 01:36:24;;;;;;;2.28;2.13;;;;;;;12.89;59.47;100719.97;4875473;29;20044;-74
2021/04/01 01:38:57;;;;;;;1.92;1.83;;;;;;;13.01;59.76;100739.72;4868913;29;20039;-75
2021/04/01 01:41:22;;;;;;;2.25;1.50;;;;;;;13.02;59.29;100746.03;4887276;29;20484;-76
2021/04/01 01:43:59;;;;;;;;;;;;;;;;;;;;;
2021/04/01 01:46:26;;;;;;;2.63;2.47;;;;;;;12.88;59.91;100729.31;4871819;29;20104;-75
2021/04/01 01:48:57;;;;;;;2.75;2.53;;;;;;;12.83;59.50;100732.03;4865773;29;20033;-75
2021/04/01 01:51:22;;;;;;;1.92;1.83;;;;;;;12.82;59.68;100723.00;4877850;29;20032;-76
2021/04/01 01:53:50;;;;;;;2.90;2.80;;;;;;;12.78;59.46;100718.31;4856612;29;20033;-76
2021/04/01 01:56:28;;;;;;;3.08;2.88;;;;;;;12.84;59.65;100733.69;4866651;29;20490;-75
2021/04/01 01:58:59;;;;;;;3.72;3.53;;;;;;;12.77;59.87;100730.41;4845741;29;20029;-77
2021/04/01 02:01:26;;;;;;;3.50;3.30;;;;;;;12.79;60.12;100736.41;4873216;29;20025;-76
2021/04/01 02:03:52;;;;;;;3.20;3.00;;;;;;;12.71;59.75;100735.84;4880985;23;20053;-76
2021/04/01 02:06:20;;;;;;;2.15;2.05;;;;;;;12.62;60.31;100723.78;4839444;29;20022;-75
2021/04/01 02:08:48;;;;;;;2.25;2.15;;;;;;;12.69;59.55;100738.06;4841597;29;20041;-75
2021/04/01 02:11:19;;;;;;;1.40;1.40;;;;;;;12.65;60.03;100736.97;4877493;29;20522;-75
2021/04/01 02:13:47;;;;;;;2.50;2.40;;;;;;;12.56;61.01;100725.69;4835984;29;20128;-74
2021/04/01 02:16:13;;;;;;;2.33;2.17;;;;;;;12.64;60.87;100724.31;4854526;29;20862;-74
2021/04/01 02:18:39;;;;;;;1.73;1.63;;;;;;;12.62;60.70;100729.28;4870502;29;20040;-74
2021/04/01 02:21:21;;;;;;;;;;;;;;;;;;;;;
2021/04/01 02:23:46;;;;;;;3.20;2.58;;;;;;;12.52;60.54;100716.34;4849384;29;20380;-75
2021/04/01 02:26:12;;;;;;;3.22;2.92;;;;;;;12.61;61.08;100722.13;4832055;29;20120;-74
2021/04/01 02:28:37;;;;;;;3.00;2.80;;;;;;;12.50;60.75;100713.06;4856809;29;20434;-74
2021/04/01 02:31:06;;;;;;;2.70;2.60;;;;;;;12.56;61.21;100720.22;4852459;29;20050;-75
2021/04/01 02:33:33;;;;;;;2.95;2.75;;;;;;;12.56;61.28;100722.13;4843781;29;20025;-76
2021/04/01 02:36:10;;;;;;;3.03;2.92;;;;;;;12.53;61.37;100714.47;4855828;29;20040;-75
2021/04/01 02:38:35;;;;;;;6.13;5.72;;;;;;;12.53;60.92;100711.72;4855086;29;20044;-75
2021/04/01 02:41:18;;;;;;;;;;;;;;;;;;;;;
2021/04/01 02:43:44;;;;;;;7.60;7.00;;;;;;;12.55;61.58;100715.00;4852847;29;20040;-74
2021/04/01 02:46:09;;;;;;;7.72;6.95;;;;;;;12.54;61.43;100714.19;4877514;29;20025;-75
2021/04/01 02:48:35;;;;;;;10.25;6.88;;;;;;;12.59;61.97;100724.34;4852263;29;20046;-74
2021/04/01 02:51:01;;;;;;;9.23;7.50;;;;;;;12.54;62.15;100713.34;4856953;29;20034;-76
2021/04/01 02:53:27;;;;;;;6.78;6.18;;;;;;;12.51;61.95;100711.16;4855631;29;20033;-76
2021/04/01 02:55:55;;;;;;;6.47;5.97;;;;;;;12.46;61.78;100705.66;4856028;29;20025;-76
2021/04/01 02:58:20;;;;;;;9.48;8.55;;;;;;;12.45;62.27;100706.75;4850300;29;20124;-76
2021/04/01 03:00:49;;;;;;;8.93;7.78;;;;;;;12.43;62.00;100708.97;4857211;29;20106;-76
2021/04/01 03:03:19;;;;;;;9.43;8.48;;;;;;;12.43;62.11;100712.50;4848724;29;20511;-73
2021/04/01 03:05:44;;;;;;;9.52;8.00;;;;;;;12.46;62.06;100719.38;4849579;29;20036;-75
2021/04/01 03:08:10;;;;;;;7.45;6.85;;;;;;;12.49;62.53;100716.09;4866603;29;20370;-74
2021/04/01 03:10:35;;;;;;;6.30;5.88;;;;;;;12.45;62.57;100715.78;4823103;29;20053;-74
2021/04/01 03:13:01;;;;;;;4.68;4.38;;;;;;;12.47;62.38;100729.25;4862335;29;20079;-75
2021/04/01 03:15:26;;;;;;;4.72;4.43;;;;;;;12.35;62.35;100727.59;4871781;29;20488;-74
2021/04/01 03:17:52;;;;;;;6.28;5.65;;;;;;;12.46;62.71;100733.09;4866144;29;20405;-75
2021/04/01 03:20:18;;;;;;;7.78;6.15;;;;;;;12.46;62.54;100747.63;4864000;29;20462;-74
2021/04/01 03:22:48;;;;;;;9.45;8.75;;;;;;;12.47;62.56;100743.78;4866673;29;20034;-74
2021/04/01 03:25:14;;;;;;;18.13;7.45;;;;;;;12.47;62.73;100740.22;4861158;29;20093;-73
2021/04/01 03:27:40;;;;;;;9.88;8.88;;;;;;;12.51;62.67;100749.53;4845601;29;20029;-75
2021/04/01 03:30:12;;;;;;;16.33;10.30;;;;;;;12.42;62.29;100743.75;4843983;29;20076;-75
2021/04/01 03:32:48;;;;;;;16.85;10.95;;;;;;;12.54;62.84;100755.34;4874980;29;20057;-76
2021/04/01 03:35:22;;;;;;;15.93;10.35;;;;;;;12.41;62.89;100747.59;4844044;29;20025;-75
2021/04/01 03:37:50;;;;;;;15.07;11.47;;;;;;;12.38;62.78;100743.50;4859273;29;20026;-75
2021/04/01 03:40:15;;;;;;;14.95;8.30;;;;;;;12.35;62.78;100743.19;4876464;29;20132;-74
2021/04/01 03:42:41;;;;;;;12.77;9.27;;;;;;;12.31;62.24;100750.31;4864950;29;20070;-75
2021/04/01 03:45:09;;;;;;;10.95;9.65;;;;;;;12.20;63.03;100746.72;4842218;29;20468;-75
2021/04/01 03:47:35;;;;;;;10.20;7.82;;;;;;;12.12;63.33;100744.50;4872655;29;20037;-74
2021/04/01 03:50:00;;;;;;;9.40;8.27;;;;;;;12.11;63.20;100753.81;4853143;29;20125;-74
2021/04/01 03:52:26;;;;;;;9.70;7.85;;;;;;;12.00;63.12;100747.47;4869917;29;20029;-75
2021/04/01 03:54:56;;;;;;;8.05;7.25;;;;;;;11.93;63.05;100741.38;4829040;29;20038;-75
2021/04/01 03:57:21;;;;;;;6.47;5.40;;;;;;;11.91;62.92;100747.13;4856293;29;20417;-75
2021/04/01 04:00:09;;;;;;;6.05;5.47;;;;;;;11.88;62.99;100744.91;4868073;29;20109;-76
2021/04/01 04:15:30;;;;;;;6.15;5.50;;;;;;;11.93;63.02;100780.63;4871600;29;20560;-75
2021/04/01 04:17:56;;;;;;;8.13;7.40;;;;;;;11.93;63.32;100785.22;4843225;29;20061;-73
2021/04/01 04:20:22;;;;;;;10.65;8.27;;;;;;;11.87;63.45;100770.66;4838679;29;20751;-75
2021/04/01 04:22:51;;;;;;;8.77;8.10;;;;;;;11.91;63.21;100782.75;4833599;29;20077;-75
2021/04/01 04:25:17;;;;;;;8.60;7.80;;;;;;;11.92;63.50;100789.88;4857272;29;20025;-77
2021/04/01 04:28:04;;;;;;;9.75;7.63;;;;;;;11.81;63.19;100777.22;4858103;29;20350;-75
2021/04/01 04:30:30;;;;;;;9.10;7.38;;;;;;;11.79;63.14;100779.41;4839421;29;20022;-76
2021/04/01 04:32:56;;;;;;;8.38;7.60;;;;;;;11.76;63.46;100785.41;4850755;29;20036;-77
2021/04/01 04:35:22;;;;;;;13.68;6.90;;;;;;;11.68;63.19;100787.56;4852609;29;20053;-75
2021/04/01 04:37:47;;;;;;;11.10;8.25;;;;;;;11.67;63.93;100794.13;4867647;29;20041;-78
2021/04/01 04:40:14;;;;;;;10.05;8.00;;;;;;;11.54;63.74;100783.63;4872576;29;20029;-77
2021/04/01 04:42:39;;;;;;;8.88;7.95;;;;;;;11.57;63.75;100798.72;4859050;29;20099;-72
2021/04/01 04:45:07;;;;;;;7.90;7.20;;;;;;;11.56;64.02;100810.75;4856605;29;20636;-77
2021/04/01 04:47:35;;;;;;;7.68;7.03;;;;;;;11.50;64.03;100809.88;4852044;29;20029;-78
2021/04/01 04:50:00;;;;;;;8.57;7.78;;;;;;;11.46;64.44;100806.03;4859678;29;20117;-78
2021/04/01 04:52:32;;;;;;;8.27;7.47;;;;;;;11.43;64.59;100809.28;4862041;29;20184;-75
2021/04/01 04:55:03;;;;;;;9.43;8.48;;;;;;;11.44;65.29;100817.25;4857101;29;20029;-75
2021/04/01 04:57:42;;;;;;;10.50;9.50;;;;;;;11.39;65.83;100814.47;4835308;29;20060;-77
2021/04/01 05:05:18;;;;;;;12.18;10.00;;;;;;;11.32;66.29;100828.38;4846535;29;20097;-78
2021/04/01 05:07:43;;;;;;;18.33;11.52;;;;;;;11.38;66.61;100836.66;4844762;29;20024;-75
2021/04/01 05:10:09;;;;;;;19.30;12.88;;;;;;;11.35;66.47;100836.06;4817898;29;20072;-75
2021/04/01 05:12:34;;;;;;;25.20;15.10;;;;;;;11.31;67.09;100843.16;4846616;29;20053;-73
2021/04/01 05:15:00;;;;;;;34.28;15.95;;;;;;;11.21;67.20;100840.31;4850009;29;20062;-75
2021/04/01 05:17:25;;;;;;;27.90;15.88;;;;;;;11.18;67.19;100852.63;4852579;29;20089;-74
2021/04/01 05:19:54;;;;;;;27.60;16.80;;;;;;;11.17;67.22;100855.63;4830030;29;20033;-73
2021/04/01 05:24:57;;;;;;;34.58;16.73;;;;;;;11.13;67.52;100868.19;4856771;29;20048;-78
2021/04/01 05:27:26;;;;;;;37.75;18.98;;;;;;;11.07;67.87;100855.50;4873522;29;20032;-78
2021/04/01 05:30:08;;;;;;;;;;;;;;;;;;;;;
2021/04/01 05:32:37;;;;;;;35.13;17.30;;;;;;;11.12;67.71;100878.28;4868211;29;20503;-77
2021/04/01 05:35:09;;;;;;;34.13;17.45;;;;;;;11.11;67.82;100873.06;4835257;29;20034;-77
2021/04/01 05:37:42;;;;;;;33.50;17.52;;;;;;;11.11;67.84;100878.53;4836645;29;20056;-75
2021/04/01 05:40:10;;;;;;;49.42;22.05;;;;;;;11.09;67.47;100872.50;4852849;29;20111;-75
2021/04/01 05:42:43;;;;;;;38.33;19.50;;;;;;;11.06;68.11;100868.38;4853222;29;20103;-75
2021/04/01 05:47:50;;;;;;;31.55;19.48;;;;;;;11.05;67.31;100876.84;4855197;29;20037;-74
2021/04/01 06:02:04;;;;;;;40.53;21.30;;;;;;;10.97;67.98;100889.91;4856002;29;20129;-77
2021/04/01 06:04:52;;;;;;;;;;;;;;;;;;;;;
2021/04/01 06:07:29;;;;;;;38.05;20.42;;;;;;;11.05;67.72;100902.28;4863998;29;20141;-74
2021/04/01 06:09:59;;;;;;;33.40;18.95;;;;;;;11.10;67.26;100916.06;4851448;29;20022;-75
2021/04/01 06:12:45;;;;;;;39.50;19.35;;;;;;;11.10;67.14;100915.22;4855395;29;20473;-76
2021/04/01 06:15:13;;;;;;;32.90;18.60;;;;;;;11.10;67.19;100916.06;4871210;29;20029;-74
2021/04/01 06:17:56;;;;;;;;;;;;;;;;;;;;;
2021/04/01 06:20:28;;;;;;;32.63;18.40;;;;;;;11.15;67.33;100923.47;4844837;29;20018;-75
2021/04/01 06:22:54;;;;;;;33.38;18.13;;;;;;;11.05;67.29;100915.97;4854676;29;20090;-76
2021/04/01 06:25:20;;;;;;;34.53;17.38;;;;;;;11.00;67.63;100921.41;4847902;29;20662;-77
2021/04/01 06:28:12;;;;;;;40.00;19.98;;;;;;;11.02;67.42;100932.09;4857899;29;20103;-77
2021/04/01 06:30:58;;;;;;;30.15;17.77;;;;;;;11.00;67.35;100946.84;4854316;29;20493;-77
2021/04/01 06:33:25;;;;;;;;;;;;;;;11.04;67.15;100951.81;4857611;29;20037;-76
2021/04/01 06:35:59;;;;;;;39.58;20.23;;;;;;;10.87;68.04;100933.56;4867712;29;19924;-77
2021/04/01 06:38:28;;;;;;;44.72;20.33;;;;;;;10.85;67.96;100934.91;4857196;29;20036;-77
2021/04/01 06:41:12;;;;;;;42.22;19.92;;;;;;;10.96;68.22;100966.78;4854579;29;20025;-77
2021/04/01 06:43:56;;;;;;;26.63;16.95;;;;;;;11.00;67.74;100971.50;4871309;29;20834;-77
2021/04/01 06:46:43;;;;;;;26.23;13.93;;;;;;;10.96;67.98;100970.34;4856943;29;20033;-76
2021/04/01 06:49:48;;;;;;;26.35;14.75;;;;;;;11.00;67.41;100968.75;4848959;29;20081;-76
2021/04/01 06:52:17;;;;;;;25.73;13.55;;;;;;;11.15;67.49;100983.69;4860455;29;20029;-76
2021/04/01 06:54:59;;;;;;;20.95;13.20;;;;;;;11.22;67.18;100989.81;4854958;29;20041;-75
2021/04/01 06:57:41;;;;;;;29.25;16.40;;;;;;;11.27;67.26;100981.66;4836911;29;20029;-76
2021/04/01 07:00:56;;;;;;;42.08;19.13;;;;;;;11.28;67.28;100983.28;4858408;29;20025;-78
2021/04/01 07:03:18;;;;;;;21.38;13.45;;;;;;;11.35;67.12;100989.41;4844344;29;20046;-75
2021/04/01 07:08:47;;;;;;;33.53;15.80;;;;;;;11.43;66.71;100990.03;4861920;29;20359;-77
2021/04/01 07:11:33;;;;;;;21.95;13.65;;;;;;;11.51;66.83;100998.59;4855591;29;20033;-77
2021/04/01 07:14:11;;;;;;;30.08;16.88;;;;;;;11.52;66.63;101004.91;4853602;29;20037;-76
2021/04/01 07:48:43;;;;;;;25.70;13.02;;;;;;;12.31;63.60;101027.28;4853912;29;20041;-76
2021/04/01 07:51:57;;;;;;;26.55;12.88;;;;;;;12.38;64.07;101023.25;4842567;29;20041;-75
2021/04/01 07:54:12;;;;;;;16.90;12.48;;;;;;;12.39;63.79;101024.88;4846449;29;20366;-77
2021/04/01 07:56:55;;;;;;;17.30;11.48;;;;;;;12.48;63.27;101035.38;4832854;29;20113;-75
2021/04/01 07:59:50;;;;;;;22.00;12.52;;;;;;;12.60;63.46;101044.25;4833139;29;20045;-75
2021/04/01 08:05:02;;;;;;;22.13;11.50;;;;;;;12.65;63.18;101036.03;4855360;29;20098;-75
2021/04/01 08:07:35;;;;;;;21.95;12.20;;;;;;;12.77;62.71;101052.28;4854479;29;20094;-78
2021/04/01 08:10:06;;;;;;;13.05;9.55;;;;;;;12.88;62.55;101054.00;4843448;29;20036;-78
2021/04/01 08:12:48;;;;;;;20.20;10.30;;;;;;;12.96;62.34;101044.41;4852288;29;20094;-78
2021/04/01 08:15:17;;;;;;;20.45;10.77;;;;;;;13.16;62.05;101053.88;4851901;29;20448;-77
2021/04/01 08:17:59;;;;;;;23.27;11.60;;;;;;;13.24;61.66;101058.81;4862417;29;20034;-77
2021/04/01 08:20:31;;;;;;;21.23;11.57;;;;;;;13.28;60.95;101058.00;4859699;29;20112;-77
2021/04/01 08:23:13;;;;;;;16.17;10.40;;;;;;;13.39;61.36;101052.59;4841444;29;20481;-76
2021/04/01 08:25:47;;;;;;;14.85;8.50;;;;;;;13.49;61.19;101051.81;4852664;29;20048;-77
2021/04/01 08:36:23;;;;;;;17.58;9.50;;;;;;;14.09;59.64;101063.16;4853883;29;20120;-76
2021/04/01 08:38:49;;;;;;;22.25;10.90;;;;;;;14.33;59.03;101066.22;4859031;29;20029;-76
2021/04/01 08:41:50;;;;;;;16.08;9.38;;;;;;;14.65;58.01;101067.88;4852891;29;20392;-77
2021/04/01 08:44:42;;;;;;;15.50;9.65;;;;;;;14.86;58.29;101074.16;4834878;29;20045;-77
2021/04/01 08:47:19;;;;;;;16.38;8.32;;;;;;;15.05;57.51;101077.13;4853251;29;20037;-77
2021/04/01 08:50:27;;;;;;;18.25;10.35;;;;;;;15.31;57.06;101077.84;4853978;29;20493;-77
2021/04/01 08:53:34;;;;;;;15.18;10.02;;;;;;;15.47;55.43;101089.63;4852686;29;20037;-77
2021/04/01 08:56:25;;;;;;;18.17;8.50;;;;;;;15.46;55.14;101087.16;4821592;29;20034;-76
2021/04/01 08:58:59;;;;;;;11.60;8.60;;;;;;;15.63;55.74;101087.63;4825196;29;20041;-77
2021/04/01 09:01:34;;;;;;;8.65;7.38;;;;;;;15.78;55.00;101092.25;4855158;29;20088;-78
2021/04/01 09:04:04;;;;;;;13.82;8.80;;;;;;;15.99;54.65;101089.38;4857191;29;20477;-78
2021/04/01 09:06:41;;;;;;;15.77;7.97;;;;;;;16.15;54.25;101088.16;4877019;29;20037;-78
2021/04/01 09:09:32;;;;;;;18.02;8.43;;;;;;;16.48;53.83;101080.16;4857517;29;20112;-80
2021/04/01 09:12:13;;;;;;;14.48;8.23;;;;;;;16.70;52.94;101081.63;4862803;29;20108;-76
2021/04/01 09:14:45;;;;;;;10.80;7.32;;;;;;;16.96;52.37;101087.72;4858965;29;20036;-76
2021/04/01 09:17:11;;;;;;;8.30;7.38;;;;;;;17.18;52.07;101087.19;4860096;29;20033;-76
2021/04/01 09:19:39;;;;;;;11.20;6.82;;;;;;;17.52;52.17;101097.31;4856775;29;20033;-76
2021/04/01 09:22:34;;;;;;;12.30;6.97;;;;;;;17.98;51.36;101082.00;4852442;29;20059;-76
2021/04/01 09:25:03;;;;;;;10.25;8.68;;;;;;;18.24;49.35;101074.13;4850041;29;20036;-77
2021/04/01 09:27:32;;;;;;;13.52;8.18;;;;;;;18.49;48.73;101091.44;4855433;29;20445;-77
2021/04/01 09:30:04;;;;;;;10.60;6.60;;;;;;;18.84;48.91;101100.25;4850118;29;20449;-77
2021/04/01 09:32:31;;;;;;;5.80;5.13;;;;;;;19.25;48.68;101095.88;4858413;29;20033;-76
2021/04/01 09:34:59;;;;;;;16.73;6.55;;;;;;;19.70;48.33;101102.41;4855862;29;20048;-76
2021/04/01 09:37:26;;;;;;;14.52;8.15;;;;;;;20.14;45.82;101111.13;4859359;29;20029;-76
2021/04/01 09:39:54;;;;;;;13.98;7.53;;;;;;;20.25;44.79;101108.94;4832217;29;20048;-76
2021/04/01 09:42:42;;;;;;;6.85;6.22;;;;;;;20.51;44.34;101102.75;4836141;29;20048;-77
2021/04/01 09:45:31;;;;;;;9.43;5.90;;;;;;;20.84;43.17;101121.94;4833899;29;20069;-76
2021/04/01 09:48:01;;;;;;;7.45;6.43;;;;;;;20.98;42.99;101127.41;4844868;29;20025;-77
2021/04/01 09:50:34;;;;;;;8.45;6.45;;;;;;;21.07;42.07;101117.97;4872993;29;20057;-77
2021/04/01 09:53:10;;;;;;;11.48;7.63;;;;;;;21.16;41.55;101112.44;4865103;29;20040;-79
2021/04/01 09:55:43;;;;;;;10.82;6.25;;;;;;;21.49;40.86;101130.69;4859602;29;20043;-78
2021/04/01 09:58:25;;;;;;;10.48;6.50;;;;;;;21.82;40.85;101141.47;4868990;29;20033;-79
2021/04/01 10:04:09;;;;;;;7.43;6.25;;;;;;;22.51;39.30;101142.63;4839616;29;20050;-78
2021/04/01 10:06:46;;;;;;;10.25;5.90;;;;;;;22.57;38.48;101135.72;4857420;29;20064;-75
2021/04/01 10:09:17;;;;;;;5.95;5.40;;;;;;;22.91;38.73;101146.00;4857507;29;20089;-75
2021/04/01 10:12:05;;;;;;;9.60;5.43;;;;;;;23.43;37.92;101139.41;4855062;29;20116;-73
2021/04/01 10:14:47;;;;;;;8.95;4.88;;;;;;;23.58;37.76;101135.19;4856536;29;20057;-78
2021/04/01 10:17:13;;;;;;;9.63;7.18;;;;;;;23.92;36.76;101129.75;4854703;29;20033;-77
2021/04/01 10:19:41;;;;;;;14.95;6.55;;;;;;;24.14;36.36;101134.22;4872739;29;20044;-74
2021/04/01 10:22:23;;;;;;;14.57;7.32;;;;;;;24.54;34.67;101130.88;4843544;29;20057;-77
2021/04/01 10:28:02;;;;;;;9.25;5.53;;;;;;;25.10;34.86;101138.81;4855892;29;20053;-75
2021/04/01 10:30:32;;;;;;;9.95;6.03;;;;;;;25.31;34.45;101135.97;4856243;29;20093;-77
2021/04/01 10:33:22;;;;;;;10.68;6.60;;;;;;;25.46;32.69;101137.25;4852209;29;20033;-76
2021/04/01 10:35:51;;;;;;;6.53;5.20;;;;;;;25.29;33.48;101129.06;4856105;29;20033;-76
2021/04/01 10:38:20;;;;;;;11.43;5.82;;;;;;;25.33;33.34;101144.03;4857579;29;20384;-75
2021/04/01 10:40:50;;;;;;;10.43;6.63;;;;;;;25.35;32.96;101144.47;4855875;29;20037;-75
2021/04/01 10:43:19;;;;;;;9.98;6.05;;;;;;;25.43;32.77;101144.34;4854185;29;20116;-76
2021/04/01 10:45:46;;;;;;;12.50;7.57;;;;;;;25.53;32.56;101148.69;4855793;29;20118;-75
2021/04/01 10:48:14;;;;;;;11.32;7.75;;;;;;;25.63;32.08;101152.16;4855791;29;20041;-75
2021/04/01 10:50:48;;;;;;;8.35;6.82;;;;;;;25.65;31.90;101147.84;4858186;29;20040;-78
2021/04/01 10:53:21;;;;;;;7.55;5.93;;;;;;;25.66;32.23;101148.69;4856774;29;20065;-75
2021/04/01 10:55:47;;;;;;;12.35;7.25;;;;;;;25.77;30.77;101163.81;4856218;29;20037;-76
2021/04/01 10:58:14;;;;;;;6.90;6.32;;;;;;;25.81;31.18;101156.34;4859851;29;20555;-76
2021/04/01 11:00:50;;;;;;;12.40;6.25;;;;;;;25.93;31.66;101145.13;4840368;29;20030;-75
2021/04/01 11:03:18;;;;;;;6.15;5.53;;;;;;;26.13;31.17;101154.56;4842493;29;20055;-75
2021/04/01 11:05:45;;;;;;;6.72;5.47;;;;;;;26.35;31.27;101159.97;4847322;29;20079;-76
2021/04/01 11:08:12;;;;;;;5.55;5.05;;;;;;;26.72;30.83;101162.63;4854046;29;20022;-75
2021/04/01 11:10:39;;;;;;;9.63;4.65;;;;;;;27.03;30.79;101169.47;4857699;29;20105;-74
2021/04/01 11:13:07;;;;;;;9.07;6.35;;;;;;;27.20;29.44;101159.88;4850394;29;20040;-75
2021/04/01 11:15:39;;;;;;;6.60;3.92;;;;;;;27.43;30.05;101166.50;4863978;29;20030;-76
2021/04/01 11:18:19;;;;;;;8.45;5.03;;;;;;;27.84;29.59;101177.50;4852850;29;20067;-75
2021/04/01 11:20:48;;;;;;;4.45;4.05;;;;;;;27.99;28.96;101179.50;4858254;29;20037;-74
2021/04/01 11:23:19;;;;;;;8.15;3.60;;;;;;;28.15;28.38;101173.81;4869082;29;20033;-75
2021/04/01 11:25:50;;;;;;;4.28;3.75;;;;;;;28.37;29.26;101177.06;4873939;29;20045;-76
2021/04/01 11:28:16;;;;;;;7.18;4.43;;;;;;;28.72;28.68;101177.03;4876528;29;20498;-76
2021/04/01 11:30:41;;;;;;;6.82;4.50;;;;;;;29.11;28.55;101175.28;4856801;29;20041;-75
2021/04/01 11:33:08;;;;;;;5.35;4.45;;;;;;;29.33;27.23;101182.94;4860369;29;20108;-75
2021/04/01 11:35:38;;;;;;;4.47;4.13;;;;;;;29.31;27.31;101174.06;4853323;29;20037;-77
2021/04/01 11:38:08;;;;;;;3.28;2.75;;;;;;;29.57;28.29;101186.53;4842206;29;20045;-77
2021/04/01 11:40:38;;;;;;;3.88;3.60;;;;;;;29.85;27.22;101174.13;4853315;29;20521;-77
2021/04/01 11:43:04;;;;;;;3.42;2.28;;;;;;;30.12;27.35;101177.69;4852187;29;20025;-74
2021/04/01 11:45:35;;;;;;;4.43;4.03;;;;;;;30.47;26.47;101170.91;4855618;29;20086;-75
2021/04/01 11:48:02;;;;;;;4.28;3.58;;;;;;;30.62;26.36;101178.34;4857993;29;20096;-74
2021/04/01 11:50:28;;;;;;;4.40;4.00;;;;;;;30.66;25.41;101175.56;4847695;29;20449;-74
2021/04/01 11:52:56;;;;;;;4.38;4.07;;;;;;;30.67;25.05;101180.00;4854811;29;20049;-75
2021/04/01 11:55:21;;;;;;;4.03;2.97;;;;;;;30.76;25.28;101177.69;4855186;29;20033;-74
2021/04/01 11:57:47;;;;;;;10.30;4.13;;;;;;;30.78;25.26;101175.31;4836331;29;20160;-74
2021/04/01 12:00:28;;;;;;;5.72;3.30;;;;;;;30.79;25.13;101159.97;4855653;29;20045;-75
2021/04/01 12:02:59;;;;;;;2.10;2.00;;;;;;;31.09;25.43;101167.56;4854121;29;20034;-74
2021/04/01 12:05:27;;;;;;;4.05;3.63;;;;;;;31.46;25.20;101157.38;4849832;29;20029;-76
2021/04/01 12:07:54;;;;;;;4.18;3.80;;;;;;;31.54;24.31;101163.88;4856581;29;20101;-76
2021/04/01 12:10:19;;;;;;;8.68;4.50;;;;;;;31.63;23.71;101170.03;4849513;29;20030;-77
2021/04/01 12:12:53;;;;;;;5.63;3.58;;;;;;;31.71;23.42;101171.69;4855988;29;20477;-74
2021/04/01 12:15:48;;;;;;;4.13;3.90;;;;;;;31.82;23.76;101175.41;4854424;29;20037;-77
2021/04/01 12:18:13;;;;;;;2.80;2.60;;;;;;;32.06;23.84;101166.66;4854541;29;20052;-77
2021/04/01 12:20:39;;;;;;;3.60;3.03;;;;;;;32.31;23.96;101175.25;4851452;29;20025;-75
2021/04/01 12:23:10;;;;;;;6.40;3.50;;;;;;;32.14;22.38;101173.97;4857986;29;20049;-76
2021/04/01 12:25:35;;;;;;;6.00;4.28;;;;;;;31.88;23.30;101166.53;4850790;29;20105;-75
2021/04/01 12:28:01;;;;;;;9.77;4.88;;;;;;;31.85;23.14;101171.78;4856855;29;20120;-75
2021/04/01 12:30:32;;;;;;;7.45;5.50;;;;;;;31.82;22.92;101164.09;4838339;29;20495;-76
2021/04/01 12:33:11;;;;;;;7.65;3.70;;;;;;;31.49;23.32;101168.69;4849168;29;20381;-75
2021/04/01 12:35:51;;;;;;;4.93;4.43;;;;;;;31.00;23.55;101169.88;4857230;29;20042;-80
2021/04/01 12:38:32;;;;;;;5.28;4.68;;;;;;;30.43;22.93;101164.41;4862407;29;20094;-74
2021/04/01 12:41:19;;;;;;;;;;;;;;;;;;;;;
2021/04/01 12:43:47;;;;;;;7.80;4.10;;;;;;;28.47;24.71;101165.22;4864872;29;20092;-74
2021/04/01 12:46:13;;;;;;;7.40;3.95;;;;;;;27.65;25.46;101165.03;4858041;29;20033;-74
2021/04/01 12:48:54;;;;;;;8.40;4.57;;;;;;;26.95;25.94;101166.47;4862278;29;20043;-73
2021/04/01 12:51:22;;;;;;;4.22;3.83;;;;;;;26.69;27.62;101157.75;4853886;29;20037;-74
2021/04/01 12:54:18;;;;;;;;;;;;;;;;;;;;;
2021/04/01 12:56:56;;;;;;;7.93;5.10;;;;;;;27.91;26.89;101172.06;4855985;29;20140;-75
2021/04/01 12:59:46;;;;;;;4.47;3.40;;;;;;;28.79;26.34;101172.69;4859695;29;20544;-75
2021/04/01 13:02:18;;;;;;;7.40;5.00;;;;;;;29.11;25.59;101178.09;4849751;29;20060;-76
2021/04/01 13:04:58;;;;;;;7.15;4.85;;;;;;;29.08;24.85;101172.03;4875183;29;20042;-77
2021/04/01 13:07:29;;;;;;;6.78;3.45;;;;;;;28.72;25.70;101176.19;4854458;29;20037;-78
2021/04/01 13:12:24;;;;;;;5.03;4.00;;;;;;;28.27;25.95;101183.28;4848567;29;20082;-79
2021/04/01 13:14:50;;;;;;;6.43;3.90;;;;;;;28.37;26.04;101185.50;4868279;29;20030;-77
2021/04/01 13:17:16;;;;;;;4.47;3.92;;;;;;;28.67;25.64;101179.31;4857285;29;20856;-77
2021/04/01 13:19:42;;;;;;;4.38;3.97;;;;;;;28.87;25.58;101177.28;4859379;29;20040;-78
2021/04/01 13:22:21;;;;;;;4.85;3.42;;;;;;;29.03;25.50;101183.63;4861501;29;20018;-77
2021/04/01 13:27:15;;;;;;;4.35;3.88;;;;;;;28.54;25.06;101182.25;4885863;29;20113;-78
2021/04/01 13:29:43;;;;;;;3.20;2.72;;;;;;;28.26;25.44;101171.22;4875538;29;20018;-78